< Typhoon 199017 1990 Season Typhoon 199019 >
Typhoon 199018 (ED)
General InformationTrack Information on Google MapsDetailed Wind InformationList of All Images || NewsDisaster Info.ResourceGoogle EarthGE AnimationAtom FeedGeoJSON
Detalied Best Track (Time Zone = UTC)
Year Month Day Hour Lat. Long. Pressure (hPa) Wind (kt) Class Image Chart
1990 9 9 18 18.5 148.5 1004 0 2 Image Chart
1990 9 10 00 19.0 147.5 1004 0 2 Image Chart
1990 9 10 06 19.5 146.5 1002 0 2 Image Chart
1990 9 10 12 19.5 145.5 1002 0 2 Image Chart
1990 9 10 18 19.5 143.8 1002 0 2 Image Chart
1990 9 11 00 19.5 141.8 1002 0 2 Image Chart
1990 9 11 06 19.6 140.0 1002 0 2 Image Chart
1990 9 11 12 19.7 138.4 1002 0 2 Image Chart
1990 9 11 18 19.7 137.5 1000 0 2 Image Chart
1990 9 12 00 19.7 136.5 998 35 3 Image Chart
1990 9 12 06 19.7 135.7 992 40 3 Image Chart
1990 9 12 12 19.7 134.6 990 45 3 Image Chart
1990 9 12 18 19.8 133.1 990 45 3 Image Chart
1990 9 13 00 19.7 131.6 990 45 3 Image Chart
1990 9 13 06 19.5 130.0 985 50 4 Image Chart
1990 9 13 12 19.4 128.6 985 50 4 Image Chart
1990 9 13 18 19.2 126.7 980 55 4 Image Chart
1990 9 14 00 19.2 124.9 975 60 4 Image Chart
1990 9 14 06 19.2 123.3 970 65 5 Image Chart
1990 9 14 12 19.1 121.8 970 65 5 Image Chart
1990 9 14 18 18.6 120.4 975 60 4 Image Chart
1990 9 15 00 18.0 119.0 975 60 4 Image Chart
1990 9 15 06 17.6 118.0 975 60 4 Image Chart
1990 9 15 12 17.3 117.0 970 65 5 Image Chart
1990 9 15 18 17.0 116.0 970 65 5 Image Chart
1990 9 16 00 16.7 115.0 965 70 5 Image Chart
1990 9 16 06 16.4 114.2 965 70 5 Image Chart
1990 9 16 12 16.2 113.6 965 70 5 Image Chart
1990 9 16 18 16.1 112.9 965 70 5 Image Chart
1990 9 17 00 16.1 112.4 965 70 5 Image Chart
1990 9 17 06 16.1 111.8 965 70 5 Image Chart
1990 9 17 12 16.1 111.0 965 70 5 Image Chart
1990 9 17 18 16.2 110.4 965 70 5 Image Chart
1990 9 18 00 16.2 109.8 965 70 5 Image Chart
1990 9 18 06 16.6 108.9 970 65 5 Image Chart
1990 9 18 12 16.8 108.2 975 60 4 Image Chart
1990 9 18 18 16.8 107.6 980 55 4 Image Chart
1990 9 19 00 17.0 107.2 985 50 4 Image Chart
1990 9 19 06 17.4 107.2 992 40 3 Image Chart
1990 9 19 12 18.5 107.1 994 35 3 Image Chart
1990 9 19 18 19.1 106.6 996 35 3 Image Chart
1990 9 20 00 19.4 105.3 1000 0 2 Image Chart
1990 9 20 06 19.3 104.6 1004 0 2 Image Chart
Japan Meteorological Agency Best Track Data | Correction Date : 1992-10-21
< Typhoon 199017 1990 Season Typhoon 199019 >

Help